sensor_id;sensor_type;location;lat;lon;timestamp;P1;durP1;ratioP1;P2;durP2;ratioP2
6356;SDS011;3211;53.452;-2.264;2023-11-18T00:02:23;5.60;;;3.13;;
6356;SDS011;3211;53.452;-2.264;2023-11-18T00:05:11;6.90;;;2.77;;
6356;SDS011;3211;53.452;-2.264;2023-11-18T00:07:59;4.30;;;2.60;;
6356;SDS011;3211;53.452;-2.264;2023-11-18T00:10:46;4.67;;;2.80;;
6356;SDS011;3211;53.452;-2.264;2023-11-18T00:13:35;5.30;;;2.47;;
6356;SDS011;3211;53.452;-2.264;2023-11-18T00:16:24;6.37;;;2.70;;
6356;SDS011;3211;53.452;-2.264;2023-11-18T00:19:12;6.33;;;2.40;;
6356;SDS011;3211;53.452;-2.264;2023-11-18T00:22:00;5.77;;;2.67;;
6356;SDS011;3211;53.452;-2.264;2023-11-18T00:24:48;4.60;;;2.17;;
6356;SDS011;3211;53.452;-2.264;2023-11-18T00:27:35;5.60;;;2.30;;
6356;SDS011;3211;53.452;-2.264;2023-11-18T00:30:24;7.90;;;2.63;;
6356;SDS011;3211;53.452;-2.264;2023-11-18T00:33:13;6.70;;;2.37;;
6356;SDS011;3211;53.452;-2.264;2023-11-18T00:36:01;6.10;;;2.80;;
6356;SDS011;3211;53.452;-2.264;2023-11-18T00:38:48;6.90;;;2.57;;
6356;SDS011;3211;53.452;-2.264;2023-11-18T00:41:36;4.50;;;2.10;;
6356;SDS011;3211;53.452;-2.264;2023-11-18T00:44:23;3.20;;;1.97;;
6356;SDS011;3211;53.452;-2.264;2023-11-18T00:47:13;4.97;;;2.10;;
6356;SDS011;3211;53.452;-2.264;2023-11-18T00:50:01;5.00;;;2.57;;
6356;SDS011;3211;53.452;-2.264;2023-11-18T00:52:49;3.83;;;1.90;;
6356;SDS011;3211;53.452;-2.264;2023-11-18T00:55:37;2.60;;;1.87;;
6356;SDS011;3211;53.452;-2.264;2023-11-18T00:58:24;2.80;;;1.90;;
6356;SDS011;3211;53.452;-2.264;2023-11-18T01:01:12;3.67;;;1.50;;
6356;SDS011;3211;53.452;-2.264;2023-11-18T01:04:04;2.30;;;1.17;;
6356;SDS011;3211;53.452;-2.264;2023-11-18T01:06:52;5.13;;;1.87;;
6356;SDS011;3211;53.452;-2.264;2023-11-18T01:09:39;1.97;;;1.70;;
6356;SDS011;3211;53.452;-2.264;2023-11-18T01:12:27;2.40;;;1.60;;
6356;SDS011;3211;53.452;-2.264;2023-11-18T01:15:15;2.40;;;1.97;;
6356;SDS011;3211;53.452;-2.264;2023-11-18T01:18:03;4.50;;;2.43;;
6356;SDS011;3211;53.452;-2.264;2023-11-18T01:20:53;1.57;;;1.33;;
6356;SDS011;3211;53.452;-2.264;2023-11-18T01:23:41;2.50;;;1.30;;
6356;SDS011;3211;53.452;-2.264;2023-11-18T01:26:30;2.90;;;2.17;;
6356;SDS011;3211;53.452;-2.264;2023-11-18T01:29:17;2.10;;;1.50;;
6356;SDS011;3211;53.452;-2.264;2023-11-18T01:32:08;1.70;;;1.50;;
6356;SDS011;3211;53.452;-2.264;2023-11-18T01:34:55;1.70;;;1.40;;
6356;SDS011;3211;53.452;-2.264;2023-11-18T01:37:44;1.23;;;1.13;;
6356;SDS011;3211;53.452;-2.264;2023-11-18T01:40:33;3.27;;;1.27;;
6356;SDS011;3211;53.452;-2.264;2023-11-18T01:43:21;2.10;;;1.40;;
6356;SDS011;3211;53.452;-2.264;2023-11-18T01:46:09;3.13;;;1.40;;
6356;SDS011;3211;53.452;-2.264;2023-11-18T01:48:58;2.40;;;1.47;;
6356;SDS011;3211;53.452;-2.264;2023-11-18T01:51:45;1.33;;;1.20;;
6356;SDS011;3211;53.452;-2.264;2023-11-18T01:54:35;2.60;;;1.07;;
6356;SDS011;3211;53.452;-2.264;2023-11-18T01:57:24;2.27;;;1.23;;
6356;SDS011;3211;53.452;-2.264;2023-11-18T02:00:13;1.10;;;0.93;;
6356;SDS011;3211;53.452;-2.264;2023-11-18T02:03:02;1.07;;;0.97;;
6356;SDS011;3211;53.452;-2.264;2023-11-18T02:05:51;1.17;;;0.80;;
6356;SDS011;3211;53.452;-2.264;2023-11-18T02:08:39;1.50;;;1.00;;
6356;SDS011;3211;53.452;-2.264;2023-11-18T02:11:31;1.00;;;0.90;;
6356;SDS011;3211;53.452;-2.264;2023-11-18T02:14:26;1.43;;;0.97;;
6356;SDS011;3211;53.452;-2.264;2023-11-18T02:17:17;1.00;;;0.90;;
6356;SDS011;3211;53.452;-2.264;2023-11-18T02:20:08;1.83;;;0.90;;
6356;SDS011;3211;53.452;-2.264;2023-11-18T02:23:01;1.00;;;0.90;;
6356;SDS011;3211;53.452;-2.264;2023-11-18T02:25:50;1.03;;;0.90;;
6356;SDS011;3211;53.452;-2.264;2023-11-18T02:28:38;1.10;;;1.00;;
6356;SDS011;3211;53.452;-2.264;2023-11-18T02:31:27;1.00;;;0.90;;
6356;SDS011;3211;53.452;-2.264;2023-11-18T02:34:19;0.90;;;0.80;;
6356;SDS011;3211;53.452;-2.264;2023-11-18T02:37:13;1.00;;;0.90;;
6356;SDS011;3211;53.452;-2.264;2023-11-18T02:40:04;1.00;;;0.90;;
6356;SDS011;3211;53.452;-2.264;2023-11-18T02:42:59;1.00;;;0.90;;
6356;SDS011;3211;53.452;-2.264;2023-11-18T02:45:50;0.80;;;0.80;;
6356;SDS011;3211;53.452;-2.264;2023-11-18T02:48:40;1.00;;;0.90;;
6356;SDS011;3211;53.452;-2.264;2023-11-18T02:51:28;1.03;;;0.93;;
6356;SDS011;3211;53.452;-2.264;2023-11-18T02:54:16;0.90;;;0.90;;
6356;SDS011;3211;53.452;-2.264;2023-11-18T02:57:04;1.47;;;1.00;;
6356;SDS011;3211;53.452;-2.264;2023-11-18T02:59:55;0.90;;;0.90;;
6356;SDS011;3211;53.452;-2.264;2023-11-18T03:02:45;1.33;;;1.00;;
6356;SDS011;3211;53.452;-2.264;2023-11-18T03:05:33;1.00;;;0.90;;
6356;SDS011;3211;53.452;-2.264;2023-11-18T03:08:22;1.00;;;0.90;;
6356;SDS011;3211;53.452;-2.264;2023-11-18T03:11:10;0.97;;;0.87;;
6356;SDS011;3211;53.452;-2.264;2023-11-18T03:13:59;0.80;;;0.80;;
6356;SDS011;3211;53.452;-2.264;2023-11-18T03:16:48;0.93;;;0.90;;
6356;SDS011;3211;53.452;-2.264;2023-11-18T03:19:35;1.00;;;0.90;;
6356;SDS011;3211;53.452;-2.264;2023-11-18T03:22:23;0.97;;;0.87;;
6356;SDS011;3211;53.452;-2.264;2023-11-18T03:25:11;1.07;;;0.97;;
6356;SDS011;3211;53.452;-2.264;2023-11-18T03:27:59;0.87;;;0.87;;
6356;SDS011;3211;53.452;-2.264;2023-11-18T03:30:46;1.10;;;0.90;;
6356;SDS011;3211;53.452;-2.264;2023-11-18T03:33:35;0.97;;;0.87;;
6356;SDS011;3211;53.452;-2.264;2023-11-18T03:36:22;0.80;;;0.80;;
6356;SDS011;3211;53.452;-2.264;2023-11-18T03:39:10;0.90;;;0.90;;
6356;SDS011;3211;53.452;-2.264;2023-11-18T03:41:58;6.20;;;0.90;;
6356;SDS011;3211;53.452;-2.264;2023-11-18T03:44:45;1.50;;;0.97;;
6356;SDS011;3211;53.452;-2.264;2023-11-18T03:47:33;0.90;;;0.80;;
6356;SDS011;3211;53.452;-2.264;2023-11-18T03:50:22;0.80;;;0.80;;
6356;SDS011;3211;53.452;-2.264;2023-11-18T03:53:10;1.63;;;0.90;;
6356;SDS011;3211;53.452;-2.264;2023-11-18T03:55:57;0.80;;;0.80;;
6356;SDS011;3211;53.452;-2.264;2023-11-18T03:58:45;0.80;;;0.80;;
6356;SDS011;3211;53.452;-2.264;2023-11-18T04:01:33;0.80;;;0.80;;
6356;SDS011;3211;53.452;-2.264;2023-11-18T04:04:21;0.80;;;0.80;;
6356;SDS011;3211;53.452;-2.264;2023-11-18T04:07:10;0.80;;;0.80;;
6356;SDS011;3211;53.452;-2.264;2023-11-18T04:09:58;0.80;;;0.80;;
6356;SDS011;3211;53.452;-2.264;2023-11-18T04:12:45;1.00;;;0.90;;
6356;SDS011;3211;53.452;-2.264;2023-11-18T04:15:33;1.20;;;0.90;;
6356;SDS011;3211;53.452;-2.264;2023-11-18T04:18:21;0.80;;;0.80;;
6356;SDS011;3211;53.452;-2.264;2023-11-18T04:21:09;0.80;;;0.80;;
6356;SDS011;3211;53.452;-2.264;2023-11-18T04:24:00;1.87;;;0.90;;
6356;SDS011;3211;53.452;-2.264;2023-11-18T04:26:48;0.80;;;0.80;;
6356;SDS011;3211;53.452;-2.264;2023-11-18T04:29:36;0.80;;;0.80;;
6356;SDS011;3211;53.452;-2.264;2023-11-18T04:32:25;0.90;;;0.80;;
6356;SDS011;3211;53.452;-2.264;2023-11-18T04:35:12;1.73;;;0.90;;
6356;SDS011;3211;53.452;-2.264;2023-11-18T04:38:00;0.83;;;0.83;;
6356;SDS011;3211;53.452;-2.264;2023-11-18T04:40:50;0.80;;;0.80;;
6356;SDS011;3211;53.452;-2.264;2023-11-18T04:43:39;0.80;;;0.80;;
6356;SDS011;3211;53.452;-2.264;2023-11-18T04:46:27;1.00;;;0.90;;
6356;SDS011;3211;53.452;-2.264;2023-11-18T04:49:15;0.90;;;0.80;;
6356;SDS011;3211;53.452;-2.264;2023-11-18T04:52:02;0.87;;;0.80;;
6356;SDS011;3211;53.452;-2.264;2023-11-18T04:54:51;0.80;;;0.80;;
6356;SDS011;3211;53.452;-2.264;2023-11-18T04:57:40;0.80;;;0.80;;
6356;SDS011;3211;53.452;-2.264;2023-11-18T05:00:28;1.00;;;0.90;;
6356;SDS011;3211;53.452;-2.264;2023-11-18T05:03:16;0.90;;;0.90;;
6356;SDS011;3211;53.452;-2.264;2023-11-18T05:06:03;0.97;;;0.87;;
6356;SDS011;3211;53.452;-2.264;2023-11-18T05:08:52;0.90;;;0.90;;
6356;SDS011;3211;53.452;-2.264;2023-11-18T05:11:40;1.00;;;0.90;;
6356;SDS011;3211;53.452;-2.264;2023-11-18T05:14:29;1.10;;;1.00;;
6356;SDS011;3211;53.452;-2.264;2023-11-18T05:17:18;1.00;;;0.90;;
6356;SDS011;3211;53.452;-2.264;2023-11-18T05:20:06;0.80;;;0.80;;
6356;SDS011;3211;53.452;-2.264;2023-11-18T05:22:54;0.90;;;0.90;;
6356;SDS011;3211;53.452;-2.264;2023-11-18T05:25:42;1.00;;;0.90;;
6356;SDS011;3211;53.452;-2.264;2023-11-18T05:28:30;0.97;;;0.87;;
6356;SDS011;3211;53.452;-2.264;2023-11-18T05:31:19;0.80;;;0.80;;
6356;SDS011;3211;53.452;-2.264;2023-11-18T05:34:07;1.10;;;1.00;;
6356;SDS011;3211;53.452;-2.264;2023-11-18T05:36:55;0.80;;;0.80;;
6356;SDS011;3211;53.452;-2.264;2023-11-18T05:39:43;1.00;;;0.90;;
6356;SDS011;3211;53.452;-2.264;2023-11-18T05:42:31;1.00;;;0.90;;
6356;SDS011;3211;53.452;-2.264;2023-11-18T05:45:18;0.90;;;0.90;;
6356;SDS011;3211;53.452;-2.264;2023-11-18T05:48:18;0.80;;;0.80;;
6356;SDS011;3211;53.452;-2.264;2023-11-18T05:51:06;0.80;;;0.80;;
6356;SDS011;3211;53.452;-2.264;2023-11-18T05:53:54;0.80;;;0.73;;
6356;SDS011;3211;53.452;-2.264;2023-11-18T05:56:42;0.80;;;0.80;;
6356;SDS011;3211;53.452;-2.264;2023-11-18T05:59:29;1.00;;;0.90;;
6356;SDS011;3211;53.452;-2.264;2023-11-18T06:02:17;0.93;;;0.87;;
6356;SDS011;3211;53.452;-2.264;2023-11-18T06:05:06;1.10;;;1.00;;
6356;SDS011;3211;53.452;-2.264;2023-11-18T06:07:54;0.80;;;0.80;;
6356;SDS011;3211;53.452;-2.264;2023-11-18T06:10:44;1.00;;;0.90;;
6356;SDS011;3211;53.452;-2.264;2023-11-18T06:13:31;1.00;;;0.90;;
6356;SDS011;3211;53.452;-2.264;2023-11-18T06:16:20;0.80;;;0.80;;
6356;SDS011;3211;53.452;-2.264;2023-11-18T06:19:09;0.80;;;0.80;;
6356;SDS011;3211;53.452;-2.264;2023-11-18T06:21:58;0.80;;;0.80;;
6356;SDS011;3211;53.452;-2.264;2023-11-18T06:24:45;0.80;;;0.80;;
6356;SDS011;3211;53.452;-2.264;2023-11-18T06:27:33;0.80;;;0.80;;
6356;SDS011;3211;53.452;-2.264;2023-11-18T06:30:21;1.10;;;0.90;;
6356;SDS011;3211;53.452;-2.264;2023-11-18T06:33:08;0.90;;;0.80;;
6356;SDS011;3211;53.452;-2.264;2023-11-18T06:35:56;1.00;;;0.90;;
6356;SDS011;3211;53.452;-2.264;2023-11-18T06:38:45;0.80;;;0.77;;
6356;SDS011;3211;53.452;-2.264;2023-11-18T06:41:35;1.00;;;0.90;;
6356;SDS011;3211;53.452;-2.264;2023-11-18T06:44:33;0.90;;;0.90;;
6356;SDS011;3211;53.452;-2.264;2023-11-18T06:47:21;0.80;;;0.80;;
6356;SDS011;3211;53.452;-2.264;2023-11-18T06:50:08;0.90;;;0.90;;
6356;SDS011;3211;53.452;-2.264;2023-11-18T06:52:59;1.00;;;0.90;;
6356;SDS011;3211;53.452;-2.264;2023-11-18T06:55:48;0.83;;;0.83;;
6356;SDS011;3211;53.452;-2.264;2023-11-18T06:58:36;1.00;;;0.90;;
6356;SDS011;3211;53.452;-2.264;2023-11-18T07:01:24;1.00;;;0.90;;
6356;SDS011;3211;53.452;-2.264;2023-11-18T07:04:12;1.30;;;0.90;;
6356;SDS011;3211;53.452;-2.264;2023-11-18T07:07:00;1.00;;;0.90;;
6356;SDS011;3211;53.452;-2.264;2023-11-18T07:09:48;0.83;;;0.83;;
6356;SDS011;3211;53.452;-2.264;2023-11-18T07:12:39;2.43;;;1.00;;
6356;SDS011;3211;53.452;-2.264;2023-11-18T07:15:26;1.10;;;1.00;;
6356;SDS011;3211;53.452;-2.264;2023-11-18T07:18:14;1.00;;;0.90;;
6356;SDS011;3211;53.452;-2.264;2023-11-18T07:21:01;1.30;;;1.10;;
6356;SDS011;3211;53.452;-2.264;2023-11-18T07:23:50;1.10;;;1.00;;
6356;SDS011;3211;53.452;-2.264;2023-11-18T07:26:38;1.30;;;1.00;;
6356;SDS011;3211;53.452;-2.264;2023-11-18T07:29:26;1.17;;;1.03;;
6356;SDS011;3211;53.452;-2.264;2023-11-18T07:32:14;1.00;;;0.90;;
6356;SDS011;3211;53.452;-2.264;2023-11-18T07:35:04;1.10;;;1.00;;
6356;SDS011;3211;53.452;-2.264;2023-11-18T07:37:54;1.10;;;1.00;;
6356;SDS011;3211;53.452;-2.264;2023-11-18T07:40:44;1.10;;;1.00;;
6356;SDS011;3211;53.452;-2.264;2023-11-18T07:43:32;1.10;;;1.00;;
6356;SDS011;3211;53.452;-2.264;2023-11-18T07:46:21;1.10;;;1.00;;
6356;SDS011;3211;53.452;-2.264;2023-11-18T07:49:09;1.20;;;1.07;;
6356;SDS011;3211;53.452;-2.264;2023-11-18T07:51:56;1.20;;;1.10;;
6356;SDS011;3211;53.452;-2.264;2023-11-18T07:54:44;1.20;;;1.10;;
6356;SDS011;3211;53.452;-2.264;2023-11-18T07:57:32;1.20;;;1.10;;
6356;SDS011;3211;53.452;-2.264;2023-11-18T08:00:21;1.20;;;1.10;;
6356;SDS011;3211;53.452;-2.264;2023-11-18T08:03:11;1.20;;;1.10;;
6356;SDS011;3211;53.452;-2.264;2023-11-18T08:06:00;1.13;;;1.03;;
6356;SDS011;3211;53.452;-2.264;2023-11-18T08:08:48;0.80;;;0.80;;
6356;SDS011;3211;53.452;-2.264;2023-11-18T08:11:35;1.20;;;1.10;;
6356;SDS011;3211;53.452;-2.264;2023-11-18T08:14:23;1.47;;;1.20;;
6356;SDS011;3211;53.452;-2.264;2023-11-18T08:17:11;1.20;;;1.10;;
6356;SDS011;3211;53.452;-2.264;2023-11-18T08:20:00;1.30;;;1.20;;
6356;SDS011;3211;53.452;-2.264;2023-11-18T08:22:52;1.10;;;1.00;;
6356;SDS011;3211;53.452;-2.264;2023-11-18T08:25:40;1.17;;;1.07;;
6356;SDS011;3211;53.452;-2.264;2023-11-18T08:28:28;1.20;;;1.10;;
6356;SDS011;3211;53.452;-2.264;2023-11-18T08:31:15;1.97;;;1.10;;
6356;SDS011;3211;53.452;-2.264;2023-11-18T08:34:03;1.23;;;1.13;;
6356;SDS011;3211;53.452;-2.264;2023-11-18T08:36:52;1.30;;;1.20;;
6356;SDS011;3211;53.452;-2.264;2023-11-18T08:39:40;1.37;;;1.27;;
6356;SDS011;3211;53.452;-2.264;2023-11-18T08:42:27;1.37;;;1.27;;
6356;SDS011;3211;53.452;-2.264;2023-11-18T08:45:17;1.50;;;1.40;;
6356;SDS011;3211;53.452;-2.264;2023-11-18T08:48:07;2.50;;;1.20;;
6356;SDS011;3211;53.452;-2.264;2023-11-18T08:50:56;1.20;;;1.10;;
6356;SDS011;3211;53.452;-2.264;2023-11-18T08:53:47;1.40;;;1.30;;
6356;SDS011;3211;53.452;-2.264;2023-11-18T08:56:39;1.30;;;1.20;;
6356;SDS011;3211;53.452;-2.264;2023-11-18T08:59:28;1.67;;;1.10;;
6356;SDS011;3211;53.452;-2.264;2023-11-18T09:02:17;1.20;;;1.10;;
6356;SDS011;3211;53.452;-2.264;2023-11-18T09:05:08;1.30;;;1.20;;
6356;SDS011;3211;53.452;-2.264;2023-11-18T09:07:58;1.27;;;1.17;;
6356;SDS011;3211;53.452;-2.264;2023-11-18T09:10:48;1.30;;;1.20;;
6356;SDS011;3211;53.452;-2.264;2023-11-18T09:13:39;1.40;;;1.30;;
6356;SDS011;3211;53.452;-2.264;2023-11-18T09:16:26;1.27;;;1.17;;
6356;SDS011;3211;53.452;-2.264;2023-11-18T09:19:15;1.10;;;1.00;;
6356;SDS011;3211;53.452;-2.264;2023-11-18T09:22:02;1.20;;;1.10;;
6356;SDS011;3211;53.452;-2.264;2023-11-18T09:24:50;1.50;;;1.13;;
6356;SDS011;3211;53.452;-2.264;2023-11-18T09:27:41;1.33;;;1.17;;
6356;SDS011;3211;53.452;-2.264;2023-11-18T09:30:28;1.10;;;1.00;;
6356;SDS011;3211;53.452;-2.264;2023-11-18T09:33:19;1.27;;;1.10;;
6356;SDS011;3211;53.452;-2.264;2023-11-18T09:36:18;2.13;;;1.00;;
6356;SDS011;3211;53.452;-2.264;2023-11-18T09:39:08;1.70;;;1.40;;
6356;SDS011;3211;53.452;-2.264;2023-11-18T09:42:01;2.33;;;1.13;;
6356;SDS011;3211;53.452;-2.264;2023-11-18T09:44:50;1.40;;;1.00;;
6356;SDS011;3211;53.452;-2.264;2023-11-18T09:47:40;1.30;;;1.20;;
6356;SDS011;3211;53.452;-2.264;2023-11-18T09:50:32;1.20;;;1.10;;
6356;SDS011;3211;53.452;-2.264;2023-11-18T09:53:23;1.30;;;1.20;;
6356;SDS011;3211;53.452;-2.264;2023-11-18T09:56:18;1.30;;;1.20;;
6356;SDS011;3211;53.452;-2.264;2023-11-18T09:59:12;1.97;;;1.37;;
6356;SDS011;3211;53.452;-2.264;2023-11-18T10:02:06;3.00;;;1.20;;
6356;SDS011;3211;53.452;-2.264;2023-11-18T10:04:55;1.57;;;1.47;;
6356;SDS011;3211;53.452;-2.264;2023-11-18T10:07:46;1.93;;;1.33;;
6356;SDS011;3211;53.452;-2.264;2023-11-18T10:10:35;1.27;;;1.17;;
6356;SDS011;3211;53.452;-2.264;2023-11-18T10:13:22;1.37;;;1.27;;
6356;SDS011;3211;53.452;-2.264;2023-11-18T10:16:10;1.23;;;1.13;;
6356;SDS011;3211;53.452;-2.264;2023-11-18T10:18:59;1.30;;;1.20;;
6356;SDS011;3211;53.452;-2.264;2023-11-18T10:21:54;1.10;;;1.00;;
6356;SDS011;3211;53.452;-2.264;2023-11-18T10:24:44;1.13;;;1.03;;
6356;SDS011;3211;53.452;-2.264;2023-11-18T10:27:32;1.50;;;1.20;;
6356;SDS011;3211;53.452;-2.264;2023-11-18T10:30:21;1.40;;;1.30;;
6356;SDS011;3211;53.452;-2.264;2023-11-18T10:33:11;1.20;;;1.10;;
6356;SDS011;3211;53.452;-2.264;2023-11-18T10:36:01;2.50;;;1.47;;
6356;SDS011;3211;53.452;-2.264;2023-11-18T10:38:49;2.03;;;1.30;;
6356;SDS011;3211;53.452;-2.264;2023-11-18T10:41:41;1.30;;;1.20;;
6356;SDS011;3211;53.452;-2.264;2023-11-18T10:44:31;1.53;;;1.20;;
6356;SDS011;3211;53.452;-2.264;2023-11-18T10:47:18;1.77;;;1.50;;
6356;SDS011;3211;53.452;-2.264;2023-11-18T10:50:07;2.53;;;1.47;;
6356;SDS011;3211;53.452;-2.264;2023-11-18T10:52:57;1.10;;;1.00;;
6356;SDS011;3211;53.452;-2.264;2023-11-18T10:55:46;1.10;;;1.00;;
6356;SDS011;3211;53.452;-2.264;2023-11-18T10:58:35;1.20;;;1.10;;
6356;SDS011;3211;53.452;-2.264;2023-11-18T11:01:29;1.73;;;1.10;;
6356;SDS011;3211;53.452;-2.264;2023-11-18T11:04:18;1.20;;;1.03;;
6356;SDS011;3211;53.452;-2.264;2023-11-18T11:07:07;1.40;;;1.10;;
6356;SDS011;3211;53.452;-2.264;2023-11-18T11:09:57;1.87;;;1.10;;
6356;SDS011;3211;53.452;-2.264;2023-11-18T11:12:50;1.30;;;1.10;;
6356;SDS011;3211;53.452;-2.264;2023-11-18T11:15:42;3.10;;;1.10;;
6356;SDS011;3211;53.452;-2.264;2023-11-18T11:18:31;1.00;;;0.90;;
6356;SDS011;3211;53.452;-2.264;2023-11-18T11:21:25;1.00;;;0.90;;
6356;SDS011;3211;53.452;-2.264;2023-11-18T11:24:17;1.37;;;1.03;;
6356;SDS011;3211;53.452;-2.264;2023-11-18T11:27:22;2.20;;;1.17;;
6356;SDS011;3211;53.452;-2.264;2023-11-18T11:30:21;1.47;;;1.37;;
6356;SDS011;3211;53.452;-2.264;2023-11-18T11:33:13;1.40;;;1.10;;
6356;SDS011;3211;53.452;-2.264;2023-11-18T11:36:09;1.17;;;1.07;;
6356;SDS011;3211;53.452;-2.264;2023-11-18T11:39:01;1.30;;;1.20;;
6356;SDS011;3211;53.452;-2.264;2023-11-18T11:41:52;1.83;;;1.00;;
6356;SDS011;3211;53.452;-2.264;2023-11-18T11:44:43;1.20;;;1.03;;
6356;SDS011;3211;53.452;-2.264;2023-11-18T11:47:32;1.40;;;1.20;;
6356;SDS011;3211;53.452;-2.264;2023-11-18T11:50:24;1.47;;;1.30;;
6356;SDS011;3211;53.452;-2.264;2023-11-18T11:53:20;2.30;;;1.13;;
6356;SDS011;3211;53.452;-2.264;2023-11-18T11:56:11;1.50;;;1.10;;
6356;SDS011;3211;53.452;-2.264;2023-11-18T11:59:06;2.57;;;1.50;;
6356;SDS011;3211;53.452;-2.264;2023-11-18T12:01:58;1.50;;;1.40;;
6356;SDS011;3211;53.452;-2.264;2023-11-18T12:04:47;3.17;;;1.50;;
6356;SDS011;3211;53.452;-2.264;2023-11-18T12:07:37;1.73;;;1.30;;
6356;SDS011;3211;53.452;-2.264;2023-11-18T12:10:27;2.70;;;1.37;;
6356;SDS011;3211;53.452;-2.264;2023-11-18T12:13:16;2.80;;;1.30;;
6356;SDS011;3211;53.452;-2.264;2023-11-18T12:16:05;2.80;;;1.37;;
6356;SDS011;3211;53.452;-2.264;2023-11-18T12:22:22;1.30;;;1.20;;
6356;SDS011;3211;53.452;-2.264;2023-11-18T12:28:24;3.47;;;1.30;;
6356;SDS011;3211;53.452;-2.264;2023-11-18T12:31:13;1.80;;;1.40;;
6356;SDS011;3211;53.452;-2.264;2023-11-18T12:34:48;2.50;;;1.43;;
6356;SDS011;3211;53.452;-2.264;2023-11-18T12:37:51;3.30;;;1.40;;
6356;SDS011;3211;53.452;-2.264;2023-11-18T12:40:58;2.53;;;1.43;;
6356;SDS011;3211;53.452;-2.264;2023-11-18T12:43:48;1.80;;;1.10;;
6356;SDS011;3211;53.452;-2.264;2023-11-18T12:46:50;1.27;;;1.17;;
6356;SDS011;3211;53.452;-2.264;2023-11-18T12:49:42;3.63;;;1.53;;
6356;SDS011;3211;53.452;-2.264;2023-11-18T12:52:29;1.47;;;1.17;;
6356;SDS011;3211;53.452;-2.264;2023-11-18T12:55:18;1.60;;;1.20;;
6356;SDS011;3211;53.452;-2.264;2023-11-18T12:58:07;2.00;;;1.30;;
6356;SDS011;3211;53.452;-2.264;2023-11-18T13:00:57;4.80;;;1.37;;
6356;SDS011;3211;53.452;-2.264;2023-11-18T13:03:45;3.47;;;1.30;;
6356;SDS011;3211;53.452;-2.264;2023-11-18T13:06:34;7.73;;;3.97;;
6356;SDS011;3211;53.452;-2.264;2023-11-18T13:09:22;1.33;;;1.23;;
6356;SDS011;3211;53.452;-2.264;2023-11-18T13:12:15;3.87;;;1.53;;
6356;SDS011;3211;53.452;-2.264;2023-11-18T13:15:05;2.40;;;1.40;;
6356;SDS011;3211;53.452;-2.264;2023-11-18T13:17:58;2.97;;;1.40;;
6356;SDS011;3211;53.452;-2.264;2023-11-18T13:20:54;2.13;;;1.40;;
6356;SDS011;3211;53.452;-2.264;2023-11-18T13:23:48;5.13;;;1.60;;
6356;SDS011;3211;53.452;-2.264;2023-11-18T13:26:38;2.77;;;1.30;;
6356;SDS011;3211;53.452;-2.264;2023-11-18T13:29:25;1.40;;;1.30;;
6356;SDS011;3211;53.452;-2.264;2023-11-18T13:32:13;5.53;;;1.60;;
6356;SDS011;3211;53.452;-2.264;2023-11-18T13:35:01;2.70;;;1.47;;
6356;SDS011;3211;53.452;-2.264;2023-11-18T13:37:49;2.37;;;1.40;;
6356;SDS011;3211;53.452;-2.264;2023-11-18T13:40:44;3.30;;;1.50;;
6356;SDS011;3211;53.452;-2.264;2023-11-18T13:43:42;4.63;;;1.77;;
6356;SDS011;3211;53.452;-2.264;2023-11-18T13:46:30;4.20;;;1.57;;
6356;SDS011;3211;53.452;-2.264;2023-11-18T13:49:19;5.23;;;1.90;;
6356;SDS011;3211;53.452;-2.264;2023-11-18T13:52:07;3.90;;;1.63;;
6356;SDS011;3211;53.452;-2.264;2023-11-18T13:54:56;5.00;;;1.70;;
6356;SDS011;3211;53.452;-2.264;2023-11-18T13:57:47;7.00;;;1.73;;
6356;SDS011;3211;53.452;-2.264;2023-11-18T14:00:35;6.63;;;1.67;;
6356;SDS011;3211;53.452;-2.264;2023-11-18T14:03:23;6.87;;;1.67;;
6356;SDS011;3211;53.452;-2.264;2023-11-18T14:06:12;5.93;;;3.50;;
6356;SDS011;3211;53.452;-2.264;2023-11-18T14:09:02;3.43;;;1.60;;
6356;SDS011;3211;53.452;-2.264;2023-11-18T14:11:51;4.77;;;1.63;;
6356;SDS011;3211;53.452;-2.264;2023-11-18T14:14:42;5.87;;;1.93;;
6356;SDS011;3211;53.452;-2.264;2023-11-18T14:17:29;5.00;;;1.93;;
6356;SDS011;3211;53.452;-2.264;2023-11-18T14:20:16;7.33;;;1.83;;
6356;SDS011;3211;53.452;-2.264;2023-11-18T14:23:05;4.57;;;2.10;;
6356;SDS011;3211;53.452;-2.264;2023-11-18T14:25:54;5.00;;;1.87;;
6356;SDS011;3211;53.452;-2.264;2023-11-18T14:28:43;5.50;;;2.00;;
6356;SDS011;3211;53.452;-2.264;2023-11-18T14:31:33;3.93;;;1.70;;
6356;SDS011;3211;53.452;-2.264;2023-11-18T14:34:21;8.97;;;2.00;;
6356;SDS011;3211;53.452;-2.264;2023-11-18T14:37:09;8.23;;;2.87;;
6356;SDS011;3211;53.452;-2.264;2023-11-18T14:39:57;6.90;;;2.30;;
6356;SDS011;3211;53.452;-2.264;2023-11-18T14:42:45;5.83;;;2.50;;
6356;SDS011;3211;53.452;-2.264;2023-11-18T14:45:34;5.63;;;2.03;;
6356;SDS011;3211;53.452;-2.264;2023-11-18T14:48:24;2.90;;;1.63;;
6356;SDS011;3211;53.452;-2.264;2023-11-18T14:51:11;5.93;;;1.70;;
6356;SDS011;3211;53.452;-2.264;2023-11-18T14:53:59;5.63;;;2.20;;
6356;SDS011;3211;53.452;-2.264;2023-11-18T14:56:47;3.57;;;1.83;;
6356;SDS011;3211;53.452;-2.264;2023-11-18T14:59:35;4.07;;;1.60;;
6356;SDS011;3211;53.452;-2.264;2023-11-18T15:02:22;7.97;;;2.40;;
6356;SDS011;3211;53.452;-2.264;2023-11-18T15:05:11;4.47;;;2.27;;
6356;SDS011;3211;53.452;-2.264;2023-11-18T15:08:01;8.60;;;2.53;;
6356;SDS011;3211;53.452;-2.264;2023-11-18T15:10:49;4.73;;;2.00;;
6356;SDS011;3211;53.452;-2.264;2023-11-18T15:13:37;5.87;;;2.43;;
6356;SDS011;3211;53.452;-2.264;2023-11-18T15:16:25;5.60;;;1.80;;
6356;SDS011;3211;53.452;-2.264;2023-11-18T15:19:12;4.80;;;2.50;;
6356;SDS011;3211;53.452;-2.264;2023-11-18T15:22:02;5.60;;;2.10;;
6356;SDS011;3211;53.452;-2.264;2023-11-18T15:24:50;6.20;;;2.03;;
6356;SDS011;3211;53.452;-2.264;2023-11-18T15:27:38;5.47;;;2.03;;
6356;SDS011;3211;53.452;-2.264;2023-11-18T15:30:26;3.30;;;2.07;;
6356;SDS011;3211;53.452;-2.264;2023-11-18T15:33:14;6.57;;;2.00;;
6356;SDS011;3211;53.452;-2.264;2023-11-18T15:36:02;8.43;;;2.97;;
6356;SDS011;3211;53.452;-2.264;2023-11-18T15:38:54;11.60;;;2.37;;
6356;SDS011;3211;53.452;-2.264;2023-11-18T15:41:48;12.27;;;2.80;;
6356;SDS011;3211;53.452;-2.264;2023-11-18T15:44:36;12.03;;;2.73;;
6356;SDS011;3211;53.452;-2.264;2023-11-18T15:47:24;10.87;;;2.60;;
6356;SDS011;3211;53.452;-2.264;2023-11-18T15:50:13;9.23;;;3.30;;
6356;SDS011;3211;53.452;-2.264;2023-11-18T15:53:01;7.90;;;2.53;;
6356;SDS011;3211;53.452;-2.264;2023-11-18T15:55:50;8.87;;;2.63;;
6356;SDS011;3211;53.452;-2.264;2023-11-18T15:58:38;7.40;;;2.63;;
6356;SDS011;3211;53.452;-2.264;2023-11-18T16:01:25;13.13;;;3.00;;
6356;SDS011;3211;53.452;-2.264;2023-11-18T16:04:13;10.67;;;3.20;;
6356;SDS011;3211;53.452;-2.264;2023-11-18T16:07:00;9.00;;;2.87;;
6356;SDS011;3211;53.452;-2.264;2023-11-18T16:09:48;7.30;;;2.63;;
6356;SDS011;3211;53.452;-2.264;2023-11-18T16:12:37;10.97;;;2.63;;
6356;SDS011;3211;53.452;-2.264;2023-11-18T16:15:26;7.77;;;2.87;;
6356;SDS011;3211;53.452;-2.264;2023-11-18T16:18:14;9.10;;;3.20;;
6356;SDS011;3211;53.452;-2.264;2023-11-18T16:21:01;8.20;;;2.90;;
6356;SDS011;3211;53.452;-2.264;2023-11-18T16:23:49;16.03;;;3.30;;
6356;SDS011;3211;53.452;-2.264;2023-11-18T16:26:37;9.73;;;2.80;;
6356;SDS011;3211;53.452;-2.264;2023-11-18T16:29:27;16.60;;;3.20;;
6356;SDS011;3211;53.452;-2.264;2023-11-18T16:32:14;15.03;;;3.50;;
6356;SDS011;3211;53.452;-2.264;2023-11-18T16:35:02;7.43;;;3.10;;
6356;SDS011;3211;53.452;-2.264;2023-11-18T16:37:51;7.77;;;4.10;;
6356;SDS011;3211;53.452;-2.264;2023-11-18T16:40:40;12.07;;;3.17;;
6356;SDS011;3211;53.452;-2.264;2023-11-18T16:43:28;9.73;;;2.83;;
6356;SDS011;3211;53.452;-2.264;2023-11-18T16:46:16;15.07;;;4.10;;
6356;SDS011;3211;53.452;-2.264;2023-11-18T16:49:04;12.43;;;3.90;;
6356;SDS011;3211;53.452;-2.264;2023-11-18T16:51:52;18.40;;;3.33;;
6356;SDS011;3211;53.452;-2.264;2023-11-18T16:54:41;10.43;;;3.57;;
6356;SDS011;3211;53.452;-2.264;2023-11-18T16:57:28;8.57;;;2.70;;
6356;SDS011;3211;53.452;-2.264;2023-11-18T17:00:17;17.83;;;3.97;;
6356;SDS011;3211;53.452;-2.264;2023-11-18T17:03:09;6.77;;;2.77;;
6356;SDS011;3211;53.452;-2.264;2023-11-18T17:05:57;10.97;;;3.70;;
6356;SDS011;3211;53.452;-2.264;2023-11-18T17:08:45;9.40;;;3.13;;
6356;SDS011;3211;53.452;-2.264;2023-11-18T17:11:33;11.60;;;3.80;;
6356;SDS011;3211;53.452;-2.264;2023-11-18T17:14:21;12.10;;;3.60;;
6356;SDS011;3211;53.452;-2.264;2023-11-18T17:17:08;13.50;;;3.50;;
6356;SDS011;3211;53.452;-2.264;2023-11-18T17:19:57;15.70;;;3.90;;
6356;SDS011;3211;53.452;-2.264;2023-11-18T17:22:45;15.63;;;4.37;;